sensor_id;sensor_type;location;lat;lon;timestamp;pressure;altitude;pressure_sealevel;temperature;humidity
7768;BME280;3928;42.626;23.382;2023-03-01T00:00:46;94649.25;;;10.19;84.63
7768;BME280;3928;42.626;23.382;2023-03-01T00:03:12;94637.38;;;10.08;84.89
7768;BME280;3928;42.626;23.382;2023-03-01T00:05:44;94646.03;;;9.96;85.91
7768;BME280;3928;42.626;23.382;2023-03-01T00:08:11;94647.75;;;9.92;86.58
7768;BME280;3928;42.626;23.382;2023-03-01T00:10:39;94638.47;;;9.79;86.24
7768;BME280;3928;42.626;23.382;2023-03-01T00:13:06;94637.53;;;9.89;86.00
7768;BME280;3928;42.626;23.382;2023-03-01T00:15:32;94629.88;;;9.86;85.52
7768;BME280;3928;42.626;23.382;2023-03-01T00:18:00;94637.50;;;9.92;86.30
7768;BME280;3928;42.626;23.382;2023-03-01T00:20:27;94634.94;;;9.92;86.27
7768;BME280;3928;42.626;23.382;2023-03-01T00:22:54;94625.63;;;9.82;86.41
7768;BME280;3928;42.626;23.382;2023-03-01T00:25:21;94590.00;;;9.53;87.14
7768;BME280;3928;42.626;23.382;2023-03-01T00:27:49;94610.28;;;9.79;86.58
7768;BME280;3928;42.626;23.382;2023-03-01T00:30:16;94610.50;;;9.55;86.75
7768;BME280;3928;42.626;23.382;2023-03-01T00:32:43;94607.16;;;9.48;88.00
7768;BME280;3928;42.626;23.382;2023-03-01T00:35:09;94596.06;;;9.48;87.72
7768;BME280;3928;42.626;23.382;2023-03-01T00:37:36;94579.03;;;9.39;88.27
7768;BME280;3928;42.626;23.382;2023-03-01T00:40:04;94593.63;;;9.23;89.01
7768;BME280;3928;42.626;23.382;2023-03-01T00:42:31;94595.41;;;9.18;89.76
7768;BME280;3928;42.626;23.382;2023-03-01T00:44:59;94592.75;;;9.29;89.35
7768;BME280;3928;42.626;23.382;2023-03-01T00:47:28;94592.75;;;9.29;88.75
7768;BME280;3928;42.626;23.382;2023-03-01T00:49:55;94588.66;;;9.06;90.19
7768;BME280;3928;42.626;23.382;2023-03-01T00:52:22;94588.56;;;9.20;89.09
7768;BME280;3928;42.626;23.382;2023-03-01T00:54:52;94594.63;;;9.07;89.92
7768;BME280;3928;42.626;23.382;2023-03-01T00:57:19;94592.88;;;9.14;90.21
7768;BME280;3928;42.626;23.382;2023-03-01T00:59:45;94588.59;;;9.14;91.06
7768;BME280;3928;42.626;23.382;2023-03-01T01:02:14;94595.63;;;8.82;91.74
7768;BME280;3928;42.626;23.382;2023-03-01T01:04:41;94600.66;;;9.00;91.67
7768;BME280;3928;42.626;23.382;2023-03-01T01:07:07;94592.16;;;8.87;91.41
7768;BME280;3928;42.626;23.382;2023-03-01T01:09:34;94585.28;;;9.00;90.92
7768;BME280;3928;42.626;23.382;2023-03-01T01:12:02;94589.53;;;8.98;90.34
7768;BME280;3928;42.626;23.382;2023-03-01T01:14:29;94591.25;;;8.99;90.63
7768;BME280;3928;42.626;23.382;2023-03-01T01:16:56;94588.69;;;9.00;89.43
7768;BME280;3928;42.626;23.382;2023-03-01T01:19:25;94592.88;;;9.09;89.42
7768;BME280;3928;42.626;23.382;2023-03-01T01:21:52;94567.34;;;8.98;89.69
7768;BME280;3928;42.626;23.382;2023-03-01T01:24:19;94597.22;;;9.02;89.72
7768;BME280;3928;42.626;23.382;2023-03-01T01:26:46;94566.53;;;8.95;89.82
7768;BME280;3928;42.626;23.382;2023-03-01T01:29:13;94589.44;;;9.18;89.04
7768;BME280;3928;42.626;23.382;2023-03-01T01:31:41;94597.97;;;9.17;88.49
7768;BME280;3928;42.626;23.382;2023-03-01T01:34:14;94597.09;;;9.19;87.41
7768;BME280;3928;42.626;23.382;2023-03-01T01:36:42;94599.66;;;9.24;86.87
7768;BME280;3928;42.626;23.382;2023-03-01T01:39:09;94598.72;;;9.31;87.39
7768;BME280;3928;42.626;23.382;2023-03-01T01:41:39;94596.16;;;9.29;86.29
7768;BME280;3928;42.626;23.382;2023-03-01T01:44:16;94569.00;;;9.07;86.46
7768;BME280;3928;42.626;23.382;2023-03-01T01:46:46;94562.25;;;9.00;86.08
7768;BME280;3928;42.626;23.382;2023-03-01T01:49:20;94600.47;;;9.27;85.69
7768;BME280;3928;42.626;23.382;2023-03-01T01:51:53;94591.78;;;9.44;85.21
7768;BME280;3928;42.626;23.382;2023-03-01T01:54:24;94600.28;;;9.52;84.29
7768;BME280;3928;42.626;23.382;2023-03-01T01:56:54;94587.50;;;9.49;84.14
7768;BME280;3928;42.626;23.382;2023-03-01T01:59:23;94591.72;;;9.53;83.57
7768;BME280;3928;42.626;23.382;2023-03-01T02:01:51;94591.63;;;9.65;83.85
7768;BME280;3928;42.626;23.382;2023-03-01T02:04:18;94582.25;;;9.64;82.32
7768;BME280;3928;42.626;23.382;2023-03-01T02:06:51;94579.81;;;9.46;82.48
7768;BME280;3928;42.626;23.382;2023-03-01T02:09:22;94579.06;;;9.33;84.13
7768;BME280;3928;42.626;23.382;2023-03-01T02:11:50;94579.03;;;9.39;83.40
7768;BME280;3928;42.626;23.382;2023-03-01T02:14:17;94560.44;;;9.11;84.09
7768;BME280;3928;42.626;23.382;2023-03-01T02:16:44;94562.97;;;9.17;83.73
7768;BME280;3928;42.626;23.382;2023-03-01T02:19:19;94577.47;;;9.18;83.83
7768;BME280;3928;42.626;23.382;2023-03-01T02:21:56;94581.75;;;9.16;84.22
7768;BME280;3928;42.626;23.382;2023-03-01T02:24:32;94575.84;;;9.06;85.49
7768;BME280;3928;42.626;23.382;2023-03-01T02:27:04;94588.56;;;9.20;84.15
7768;BME280;3928;42.626;23.382;2023-03-01T02:29:32;94548.50;;;9.10;84.22
7768;BME280;3928;42.626;23.382;2023-03-01T02:32:02;94583.41;;;9.26;83.75
7768;BME280;3928;42.626;23.382;2023-03-01T02:34:30;94586.06;;;9.09;85.19
7768;BME280;3928;42.626;23.382;2023-03-01T02:37:01;94590.25;;;9.20;85.31
7768;BME280;3928;42.626;23.382;2023-03-01T02:39:32;94592.84;;;9.18;84.77
7768;BME280;3928;42.626;23.382;2023-03-01T02:42:02;94594.59;;;9.10;85.26
7768;BME280;3928;42.626;23.382;2023-03-01T02:44:31;94595.53;;;9.00;86.15
7768;BME280;3928;42.626;23.382;2023-03-01T02:47:01;94588.81;;;8.74;86.72
7768;BME280;3928;42.626;23.382;2023-03-01T02:49:30;94591.38;;;8.81;87.59
7768;BME280;3928;42.626;23.382;2023-03-01T02:52:29;94590.47;;;8.85;87.78
7768;BME280;3928;42.626;23.382;2023-03-01T02:55:02;94581.94;;;8.89;87.21
7768;BME280;3928;42.626;23.382;2023-03-01T02:57:31;94578.53;;;8.90;87.80
7768;BME280;3928;42.626;23.382;2023-03-01T03:00:03;94594.75;;;8.83;87.67
7768;BME280;3928;42.626;23.382;2023-03-01T03:02:34;94591.34;;;8.82;88.23
7768;BME280;3928;42.626;23.382;2023-03-01T03:05:06;94579.44;;;8.76;88.93
7768;BME280;3928;42.626;23.382;2023-03-01T03:07:34;94576.09;;;8.65;88.78
7768;BME280;3928;42.626;23.382;2023-03-01T03:10:03;94577.00;;;8.55;88.76
7768;BME280;3928;42.626;23.382;2023-03-01T03:12:30;94586.34;;;8.65;89.02
7768;BME280;3928;42.626;23.382;2023-03-01T03:14:57;94591.44;;;8.62;89.15
7768;BME280;3928;42.626;23.382;2023-03-01T03:17:25;94585.47;;;8.63;89.24
7768;BME280;3928;42.626;23.382;2023-03-01T03:19:52;94583.69;;;8.81;88.36
7768;BME280;3928;42.626;23.382;2023-03-01T03:22:19;94556.56;;;8.47;88.70
7768;BME280;3928;42.626;23.382;2023-03-01T03:24:45;94589.84;;;8.34;90.66
7768;BME280;3928;42.626;23.382;2023-03-01T03:27:12;94592.41;;;8.25;91.25
7768;BME280;3928;42.626;23.382;2023-03-01T03:29:39;94587.28;;;8.37;90.69
7768;BME280;3928;42.626;23.382;2023-03-01T03:32:06;94596.66;;;8.38;91.12
7768;BME280;3928;42.626;23.382;2023-03-01T03:34:34;94596.66;;;8.33;91.31
7768;BME280;3928;42.626;23.382;2023-03-01T03:37:01;94594.97;;;8.43;89.86
7768;BME280;3928;42.626;23.382;2023-03-01T03:39:28;94594.06;;;8.47;90.07
7768;BME280;3928;42.626;23.382;2023-03-01T03:42:00;94601.69;;;8.59;90.49
7768;BME280;3928;42.626;23.382;2023-03-01T03:44:27;94599.91;;;8.73;88.89
7768;BME280;3928;42.626;23.382;2023-03-01T03:46:54;94588.81;;;8.79;87.83
7768;BME280;3928;42.626;23.382;2023-03-01T03:49:21;94597.25;;;8.95;87.92
7768;BME280;3928;42.626;23.382;2023-03-01T03:51:49;94593.81;;;8.99;86.79
7768;BME280;3928;42.626;23.382;2023-03-01T03:54:16;94598.88;;;9.08;86.48
7768;BME280;3928;42.626;23.382;2023-03-01T03:56:43;94597.94;;;9.21;86.48
7768;BME280;3928;42.626;23.382;2023-03-01T03:59:09;94600.56;;;9.12;85.93
7768;BME280;3928;42.626;23.382;2023-03-01T04:01:37;94586.09;;;9.05;86.12
7768;BME280;3928;42.626;23.382;2023-03-01T04:04:04;94593.75;;;9.08;86.04
7768;BME280;3928;42.626;23.382;2023-03-01T04:06:33;94605.72;;;9.06;85.91
7768;BME280;3928;42.626;23.382;2023-03-01T04:09:01;94600.50;;;9.18;85.16
7768;BME280;3928;42.626;23.382;2023-03-01T04:11:28;94594.63;;;9.07;85.99
7768;BME280;3928;42.626;23.382;2023-03-01T04:13:57;94599.78;;;9.02;86.41
7768;BME280;3928;42.626;23.382;2023-03-01T04:16:24;94605.75;;;9.03;86.44
7768;BME280;3928;42.626;23.382;2023-03-01T04:18:51;94600.53;;;9.15;85.67
7768;BME280;3928;42.626;23.382;2023-03-01T04:21:20;94598.78;;;9.20;85.94
7768;BME280;3928;42.626;23.382;2023-03-01T04:23:47;94601.31;;;9.28;85.60
7768;BME280;3928;42.626;23.382;2023-03-01T04:26:15;94606.47;;;9.25;85.63
7768;BME280;3928;42.626;23.382;2023-03-01T04:28:42;94605.59;;;9.27;84.92
7768;BME280;3928;42.626;23.382;2023-03-01T04:31:12;94605.69;;;9.12;86.24
7768;BME280;3928;42.626;23.382;2023-03-01T04:33:43;94598.81;;;9.17;85.27
7768;BME280;3928;42.626;23.382;2023-03-01T04:36:10;94603.03;;;9.27;84.72
7768;BME280;3928;42.626;23.382;2023-03-01T04:38:38;94580.03;;;9.18;84.15
7768;BME280;3928;42.626;23.382;2023-03-01T04:41:06;94600.53;;;9.17;84.80
7768;BME280;3928;42.626;23.382;2023-03-01T04:43:35;94594.56;;;9.15;85.27
7768;BME280;3928;42.626;23.382;2023-03-01T04:46:02;94605.69;;;9.11;85.03
7768;BME280;3928;42.626;23.382;2023-03-01T04:48:30;94597.28;;;8.86;85.97
7768;BME280;3928;42.626;23.382;2023-03-01T04:50:58;94602.56;;;8.58;87.06
7768;BME280;3928;42.626;23.382;2023-03-01T04:53:25;94585.44;;;8.69;87.53
7768;BME280;3928;42.626;23.382;2023-03-01T04:55:53;94593.09;;;8.74;87.47
7768;BME280;3928;42.626;23.382;2023-03-01T04:58:20;94601.53;;;8.93;87.00
7768;BME280;3928;42.626;23.382;2023-03-01T05:00:49;94592.16;;;8.92;86.69
7768;BME280;3928;42.626;23.382;2023-03-01T05:03:16;94593.81;;;9.02;86.67
7768;BME280;3928;42.626;23.382;2023-03-01T05:05:44;94588.66;;;9.06;86.79
7768;BME280;3928;42.626;23.382;2023-03-01T05:08:12;94595.53;;;8.97;85.79
7768;BME280;3928;42.626;23.382;2023-03-01T05:10:44;94595.44;;;9.11;86.15
7768;BME280;3928;42.626;23.382;2023-03-01T05:13:12;94590.28;;;9.18;85.88
7768;BME280;3928;42.626;23.382;2023-03-01T05:15:40;94599.84;;;8.92;86.04
7768;BME280;3928;42.626;23.382;2023-03-01T05:18:09;94609.31;;;8.77;86.94
7768;BME280;3928;42.626;23.382;2023-03-01T05:20:37;94600.75;;;8.75;86.48
7768;BME280;3928;42.626;23.382;2023-03-01T05:23:04;94589.69;;;8.76;85.78
7768;BME280;3928;42.626;23.382;2023-03-01T05:25:33;94599.09;;;8.68;86.74
7768;BME280;3928;42.626;23.382;2023-03-01T05:28:00;94602.53;;;8.67;86.18
7768;BME280;3928;42.626;23.382;2023-03-01T05:30:30;94599.03;;;8.81;86.45
7768;BME280;3928;42.626;23.382;2023-03-01T05:32:58;94610.22;;;8.60;85.56
7768;BME280;3928;42.626;23.382;2023-03-01T05:35:26;94597.38;;;8.70;84.84
7768;BME280;3928;42.626;23.382;2023-03-01T05:37:54;94599.00;;;8.84;83.53
7768;BME280;3928;42.626;23.382;2023-03-01T05:40:22;94603.44;;;8.48;85.12
7768;BME280;3928;42.626;23.382;2023-03-01T05:42:52;94605.16;;;8.49;86.13
7768;BME280;3928;42.626;23.382;2023-03-01T05:45:20;94587.28;;;8.40;86.59
7768;BME280;3928;42.626;23.382;2023-03-01T05:47:48;94605.91;;;8.69;85.58
7768;BME280;3928;42.626;23.382;2023-03-01T05:50:17;94604.25;;;8.65;85.82
7768;BME280;3928;42.626;23.382;2023-03-01T05:52:47;94610.16;;;8.78;85.31
7768;BME280;3928;42.626;23.382;2023-03-01T05:55:15;94616.97;;;8.79;84.95
7768;BME280;3928;42.626;23.382;2023-03-01T05:57:42;94604.91;;;8.96;84.05
7768;BME280;3928;42.626;23.382;2023-03-01T06:00:10;94618.56;;;8.97;83.56
7768;BME280;3928;42.626;23.382;2023-03-01T06:02:37;94617.56;;;9.19;82.95
7768;BME280;3928;42.626;23.382;2023-03-01T06:05:06;94622.69;;;9.21;82.38
7768;BME280;3928;42.626;23.382;2023-03-01T06:07:34;94614.81;;;9.50;89.69
7768;BME280;3928;42.626;23.382;2023-03-01T06:10:03;94625.56;;;9.91;86.59
7768;BME280;3928;42.626;23.382;2023-03-01T06:12:31;94625.38;;;10.11;81.11
7768;BME280;3928;42.626;23.382;2023-03-01T06:14:58;94610.00;;;10.10;80.08
7768;BME280;3928;42.626;23.382;2023-03-01T06:17:24;94632.25;;;10.06;79.85
7768;BME280;3928;42.626;23.382;2023-03-01T06:19:51;94633.00;;;10.16;78.48
7768;BME280;3928;42.626;23.382;2023-03-01T06:22:18;94632.88;;;10.34;77.07
7768;BME280;3928;42.626;23.382;2023-03-01T06:24:45;94631.91;;;10.44;75.67
7768;BME280;3928;42.626;23.382;2023-03-01T06:27:13;94630.34;;;10.31;75.37
7768;BME280;3928;42.626;23.382;2023-03-01T06:29:40;94635.59;;;10.14;76.43
7768;BME280;3928;42.626;23.382;2023-03-01T06:32:06;94637.34;;;10.12;76.61
7768;BME280;3928;42.626;23.382;2023-03-01T06:34:34;94627.31;;;9.86;77.63
7768;BME280;3928;42.626;23.382;2023-03-01T06:37:01;94632.53;;;9.76;78.09
7768;BME280;3928;42.626;23.382;2023-03-01T06:39:30;94634.59;;;9.23;78.36
7768;BME280;3928;42.626;23.382;2023-03-01T06:41:57;94639.69;;;9.32;79.45
7768;BME280;3928;42.626;23.382;2023-03-01T06:44:25;94650.06;;;9.13;80.23
7768;BME280;3928;42.626;23.382;2023-03-01T06:46:52;94638.03;;;9.22;80.81
7768;BME280;3928;42.626;23.382;2023-03-01T06:49:19;94628.66;;;9.26;81.46
7768;BME280;3928;42.626;23.382;2023-03-01T06:51:46;94636.28;;;9.30;81.55
7768;BME280;3928;42.626;23.382;2023-03-01T06:54:13;94640.66;;;9.10;81.47
7768;BME280;3928;42.626;23.382;2023-03-01T06:56:40;94624.44;;;9.14;80.45
7768;BME280;3928;42.626;23.382;2023-03-01T06:59:06;94637.97;;;9.34;80.60
7768;BME280;3928;42.626;23.382;2023-03-01T07:01:35;94641.44;;;9.27;81.01
7768;BME280;3928;42.626;23.382;2023-03-01T07:04:02;94641.47;;;9.21;80.91
7768;BME280;3928;42.626;23.382;2023-03-01T07:06:30;94639.78;;;9.17;82.42
7768;BME280;3928;42.626;23.382;2023-03-01T07:08:56;94638.97;;;9.11;82.61
7768;BME280;3928;42.626;23.382;2023-03-01T07:11:23;94639.81;;;9.11;82.25
7768;BME280;3928;42.626;23.382;2023-03-01T07:13:50;94633.91;;;9.03;83.16
7768;BME280;3928;42.626;23.382;2023-03-01T07:16:17;94632.13;;;9.11;81.96
7768;BME280;3928;42.626;23.382;2023-03-01T07:18:47;94630.41;;;9.15;80.80
7768;BME280;3928;42.626;23.382;2023-03-01T07:21:14;94625.31;;;9.12;80.41
7768;BME280;3928;42.626;23.382;2023-03-01T07:23:41;94637.16;;;9.23;80.15
7768;BME280;3928;42.626;23.382;2023-03-01T07:26:08;94630.47;;;9.05;81.87
7768;BME280;3928;42.626;23.382;2023-03-01T07:28:35;94633.81;;;9.17;81.38
7768;BME280;3928;42.626;23.382;2023-03-01T07:31:05;94627.78;;;9.22;80.60
7768;BME280;3928;42.626;23.382;2023-03-01T07:33:32;94630.44;;;9.12;81.58
7768;BME280;3928;42.626;23.382;2023-03-01T07:36:02;94605.88;;;8.75;81.05
7768;BME280;3928;42.626;23.382;2023-03-01T07:38:29;94624.53;;;9.02;79.63
7768;BME280;3928;42.626;23.382;2023-03-01T07:41:00;94627.88;;;9.13;80.86
7768;BME280;3928;42.626;23.382;2023-03-01T07:43:27;94619.25;;;9.22;81.73
7768;BME280;3928;42.626;23.382;2023-03-01T07:45:54;94626.22;;;9.01;82.08
7768;BME280;3928;42.626;23.382;2023-03-01T07:48:21;94612.56;;;8.99;81.75
7768;BME280;3928;42.626;23.382;2023-03-01T07:50:48;94633.03;;;9.04;81.00
7768;BME280;3928;42.626;23.382;2023-03-01T07:53:16;94617.63;;;9.08;80.49
7768;BME280;3928;42.626;23.382;2023-03-01T07:55:43;94611.66;;;9.09;80.15
7768;BME280;3928;42.626;23.382;2023-03-01T07:58:09;94603.06;;;9.20;79.53
7768;BME280;3928;42.626;23.382;2023-03-01T08:00:36;94613.97;;;9.48;78.69
7768;BME280;3928;42.626;23.382;2023-03-01T08:03:03;94615.97;;;9.03;79.87
7768;BME280;3928;42.626;23.382;2023-03-01T08:05:30;94609.03;;;9.20;78.57
7768;BME280;3928;42.626;23.382;2023-03-01T08:07:57;94609.78;;;9.33;77.75
7768;BME280;3928;42.626;23.382;2023-03-01T08:10:25;94614.22;;;9.14;78.28
7768;BME280;3928;42.626;23.382;2023-03-01T08:12:52;94610.75;;;9.18;78.71
7768;BME280;3928;42.626;23.382;2023-03-01T08:15:19;94614.28;;;9.02;80.28
7768;BME280;3928;42.626;23.382;2023-03-01T08:17:48;94618.56;;;9.01;80.04
7768;BME280;3928;42.626;23.382;2023-03-01T08:20:16;94591.25;;;8.99;80.99
7768;BME280;3928;42.626;23.382;2023-03-01T08:22:42;94616.78;;;9.09;80.29
7768;BME280;3928;42.626;23.382;2023-03-01T08:25:09;94615.75;;;9.40;79.18
7768;BME280;3928;42.626;23.382;2023-03-01T08:27:37;94608.88;;;9.42;78.03
7768;BME280;3928;42.626;23.382;2023-03-01T08:30:06;94608.19;;;9.24;78.60
7768;BME280;3928;42.626;23.382;2023-03-01T08:32:36;94609.97;;;9.08;79.64
7768;BME280;3928;42.626;23.382;2023-03-01T08:35:04;94607.38;;;9.15;79.85
7768;BME280;3928;42.626;23.382;2023-03-01T08:37:31;94607.13;;;9.50;79.50
7768;BME280;3928;42.626;23.382;2023-03-01T08:39:58;94609.00;;;9.26;79.04
7768;BME280;3928;42.626;23.382;2023-03-01T08:42:25;94600.34;;;9.43;78.02
7768;BME280;3928;42.626;23.382;2023-03-01T08:44:53;94610.53;;;9.50;77.77
7768;BME280;3928;42.626;23.382;2023-03-01T08:47:22;94608.75;;;9.57;77.36
7768;BME280;3928;42.626;23.382;2023-03-01T08:49:49;94604.47;;;9.57;76.94
7768;BME280;3928;42.626;23.382;2023-03-01T08:52:16;94614.84;;;9.45;77.76
7768;BME280;3928;42.626;23.382;2023-03-01T08:54:43;94617.38;;;9.50;77.87
7768;BME280;3928;42.626;23.382;2023-03-01T08:57:10;94613.03;;;9.58;76.98
7768;BME280;3928;42.626;23.382;2023-03-01T08:59:38;94612.13;;;9.65;77.79
7768;BME280;3928;42.626;23.382;2023-03-01T09:02:12;94616.16;;;9.90;76.72
7768;BME280;3928;42.626;23.382;2023-03-01T09:04:39;94605.88;;;9.95;76.33
7768;BME280;3928;42.626;23.382;2023-03-01T09:07:06;94605.38;;;9.55;76.53
7768;BME280;3928;42.626;23.382;2023-03-01T09:09:33;94596.81;;;9.56;76.79
7768;BME280;3928;42.626;23.382;2023-03-01T09:12:00;94602.72;;;9.65;76.45
7768;BME280;3928;42.626;23.382;2023-03-01T09:14:27;94598.47;;;9.64;75.55
7768;BME280;3928;42.626;23.382;2023-03-01T09:16:54;94601.72;;;9.83;75.99
7768;BME280;3928;42.626;23.382;2023-03-01T09:19:22;94612.09;;;9.71;76.03
7768;BME280;3928;42.626;23.382;2023-03-01T09:21:49;94606.75;;;9.92;75.17
7768;BME280;3928;42.626;23.382;2023-03-01T09:24:20;94600.19;;;9.62;75.85
7768;BME280;3928;42.626;23.382;2023-03-01T09:26:47;94599.28;;;9.71;75.33
7768;BME280;3928;42.626;23.382;2023-03-01T09:29:15;94594.91;;;9.79;75.65
7768;BME280;3928;42.626;23.382;2023-03-01T09:31:42;94597.34;;;9.91;75.83
7768;BME280;3928;42.626;23.382;2023-03-01T09:34:09;94588.66;;;10.06;73.87
7768;BME280;3928;42.626;23.382;2023-03-01T09:36:37;94610.88;;;10.06;74.61
7768;BME280;3928;42.626;23.382;2023-03-01T09:39:04;94603.09;;;10.16;73.76
7768;BME280;3928;42.626;23.382;2023-03-01T09:41:52;94600.56;;;10.13;73.98
7768;BME280;3928;42.626;23.382;2023-03-01T09:44:30;94596.00;;;10.41;73.00
7768;BME280;3928;42.626;23.382;2023-03-01T09:46:58;94587.28;;;10.58;72.37
7768;BME280;3928;42.626;23.382;2023-03-01T09:49:27;94583.25;;;10.37;72.78
7768;BME280;3928;42.626;23.382;2023-03-01T09:52:00;94584.91;;;10.41;72.98
7768;BME280;3928;42.626;23.382;2023-03-01T09:54:27;94587.56;;;10.33;73.67
7768;BME280;3928;42.626;23.382;2023-03-01T09:57:04;94589.19;;;10.40;72.88
7768;BME280;3928;42.626;23.382;2023-03-01T09:59:40;94584.75;;;10.54;72.61
7768;BME280;3928;42.626;23.382;2023-03-01T10:02:23;94579.41;;;10.71;71.63
7768;BME280;3928;42.626;23.382;2023-03-01T10:04:53;94571.94;;;10.54;72.80
7768;BME280;3928;42.626;23.382;2023-03-01T10:07:29;94576.09;;;10.62;71.98
7768;BME280;3928;42.626;23.382;2023-03-01T10:09:59;94570.03;;;10.69;72.31
7768;BME280;3928;42.626;23.382;2023-03-01T10:12:34;94577.81;;;10.61;72.16
7768;BME280;3928;42.626;23.382;2023-03-01T10:15:05;94576.22;;;10.51;73.32
7768;BME280;3928;42.626;23.382;2023-03-01T10:17:38;94568.78;;;10.28;74.32
7768;BME280;3928;42.626;23.382;2023-03-01T10:20:18;94566.09;;;10.40;74.54
7768;BME280;3928;42.626;23.382;2023-03-01T10:22:46;94559.25;;;10.42;73.77
7768;BME280;3928;42.626;23.382;2023-03-01T10:25:23;94558.25;;;10.51;73.91
7768;BME280;3928;42.626;23.382;2023-03-01T10:27:52;94546.28;;;10.51;72.94
7768;BME280;3928;42.626;23.382;2023-03-01T10:30:21;94549.66;;;10.57;73.00
7768;BME280;3928;42.626;23.382;2023-03-01T10:32:51;94551.22;;;10.65;72.40
7768;BME280;3928;42.626;23.382;2023-03-01T10:35:22;94550.63;;;10.48;72.94
7768;BME280;3928;42.626;23.382;2023-03-01T10:38:05;94544.44;;;10.63;72.93
7768;BME280;3928;42.626;23.382;2023-03-01T10:40:32;94541.81;;;10.67;72.28
7768;BME280;3928;42.626;23.382;2023-03-01T10:43:01;94517.25;;;10.48;72.89
7768;BME280;3928;42.626;23.382;2023-03-01T10:45:34;94536.03;;;10.51;72.66
7768;BME280;3928;42.626;23.382;2023-03-01T10:48:08;94535.16;;;10.51;73.99
7768;BME280;3928;42.626;23.382;2023-03-01T10:50:38;94525.81;;;10.48;73.26
7768;BME280;3928;42.626;23.382;2023-03-01T10:53:24;94535.78;;;10.70;73.58
7768;BME280;3928;42.626;23.382;2023-03-01T10:56:00;94528.69;;;10.87;73.08
7768;BME280;3928;42.626;23.382;2023-03-01T10:58:28;94518.53;;;10.81;72.70
7768;BME280;3928;42.626;23.382;2023-03-01T11:00:57;94534.50;;;11.00;72.01
7768;BME280;3928;42.626;23.382;2023-03-01T11:03:26;94516.31;;;10.55;73.77
7768;BME280;3928;42.626;23.382;2023-03-01T11:06:00;94520.41;;;10.70;73.58
7768;BME280;3928;42.626;23.382;2023-03-01T11:08:40;94525.00;;;11.06;73.32
7768;BME280;3928;42.626;23.382;2023-03-01T11:11:21;94535.41;;;10.97;71.93
7768;BME280;3928;42.626;23.382;2023-03-01T11:13:52;94528.44;;;11.05;72.35
7768;BME280;3928;42.626;23.382;2023-03-01T11:16:25;94529.00;;;11.23;70.94
7768;BME280;3928;42.626;23.382;2023-03-01T11:19:00;94533.44;;;11.15;71.04
7768;BME280;3928;42.626;23.382;2023-03-01T11:21:30;94524.09;;;11.09;71.59
7768;BME280;3928;42.626;23.382;2023-03-01T11:24:01;94529.44;;;10.95;71.73
7768;BME280;3928;42.626;23.382;2023-03-01T11:26:34;94535.94;;;11.19;71.79
7768;BME280;3928;42.626;23.382;2023-03-01T11:29:06;94530.16;;;11.05;71.70
7768;BME280;3928;42.626;23.382;2023-03-01T11:31:34;94526.63;;;11.10;71.38
7768;BME280;3928;42.626;23.382;2023-03-01T11:34:09;94535.06;;;11.20;70.30
7768;BME280;3928;42.626;23.382;2023-03-01T11:36:42;94533.38;;;11.19;70.50
7768;BME280;3928;42.626;23.382;2023-03-01T11:39:18;94510.78;;;10.84;71.03
7768;BME280;3928;42.626;23.382;2023-03-01T11:41:51;94516.91;;;10.74;72.25
7768;BME280;3928;42.626;23.382;2023-03-01T11:44:22;94520.47;;;10.64;72.08
7768;BME280;3928;42.626;23.382;2023-03-01T11:47:07;94498.59;;;10.35;73.17
7768;BME280;3928;42.626;23.382;2023-03-01T11:49:50;94512.84;;;10.58;73.64
7768;BME280;3928;42.626;23.382;2023-03-01T11:52:33;94499.00;;;10.69;72.89
7768;BME280;3928;42.626;23.382;2023-03-01T11:55:19;94501.19;;;10.35;73.96
7768;BME280;3928;42.626;23.382;2023-03-01T11:58:00;94499.72;;;10.11;75.99
7768;BME280;3928;42.626;23.382;2023-03-01T12:00:44;94495.94;;;10.41;74.40
7768;BME280;3928;42.626;23.382;2023-03-01T12:03:28;94505.22;;;10.54;73.76
7768;BME280;3928;42.626;23.382;2023-03-01T12:06:26;94494.03;;;10.59;72.97
7768;BME280;3928;42.626;23.382;2023-03-01T12:09:05;94492.91;;;10.76;72.26
7768;BME280;3928;42.626;23.382;2023-03-01T12:11:46;94498.88;;;10.78;72.98
7768;BME280;3928;42.626;23.382;2023-03-01T12:14:35;94485.72;;;11.01;71.50
7768;BME280;3928;42.626;23.382;2023-03-01T12:17:21;94461.31;;;11.27;70.19
7768;BME280;3928;42.626;23.382;2023-03-01T12:20:05;94488.06;;;11.64;68.62
7768;BME280;3928;42.626;23.382;2023-03-01T12:22:46;94482.50;;;11.89;67.80
7768;BME280;3928;42.626;23.382;2023-03-01T12:25:22;94475.84;;;12.23;66.78
7768;BME280;3928;42.626;23.382;2023-03-01T12:28:16;94474.34;;;11.65;68.16
7768;BME280;3928;42.626;23.382;2023-03-01T12:33:45;94483.69;;;11.20;70.61
7768;BME280;3928;42.626;23.382;2023-03-01T12:36:42;94472.19;;;11.42;69.09
7768;BME280;3928;42.626;23.382;2023-03-01T12:39:34;94477.72;;;11.67;67.62
7768;BME280;3928;42.626;23.382;2023-03-01T12:42:10;94491.81;;;11.45;68.20
7768;BME280;3928;42.626;23.382;2023-03-01T12:45:02;94464.47;;;11.42;68.96
7768;BME280;3928;42.626;23.382;2023-03-01T12:47:47;94478.56;;;11.19;69.65
7768;BME280;3928;42.626;23.382;2023-03-01T12:50:20;94456.91;;;11.33;69.75
7768;BME280;3928;42.626;23.382;2023-03-01T12:52:50;94469.72;;;11.35;68.84
7768;BME280;3928;42.626;23.382;2023-03-01T12:55:27;94469.88;;;11.27;68.70
7768;BME280;3928;42.626;23.382;2023-03-01T12:58:03;94468.13;;;11.29;69.30
7768;BME280;3928;42.626;23.382;2023-03-01T13:00:36;94460.28;;;11.37;68.59
7768;BME280;3928;42.626;23.382;2023-03-01T13:03:15;94467.59;;;11.58;67.85
7768;BME280;3928;42.626;23.382;2023-03-01T13:05:56;94473.06;;;11.41;69.10
7768;BME280;3928;42.626;23.382;2023-03-01T13:08:31;94468.81;;;10.85;71.63
7768;BME280;3928;42.626;23.382;2023-03-01T13:11:01;94473.22;;;10.78;72.68
7768;BME280;3928;42.626;23.382;2023-03-01T13:13:29;94473.81;;;10.94;71.92
7768;BME280;3928;42.626;23.382;2023-03-01T13:15:57;94468.94;;;10.79;71.74
7768;BME280;3928;42.626;23.382;2023-03-01T13:18:44;94475.84;;;10.74;72.81
7768;BME280;3928;42.626;23.382;2023-03-01T13:21:12;94479.94;;;10.86;73.14
7768;BME280;3928;42.626;23.382;2023-03-01T13:23:39;94461.75;;;10.42;74.77
7768;BME280;3928;42.626;23.382;2023-03-01T13:26:12;94471.81;;;10.56;75.19
7768;BME280;3928;42.626;23.382;2023-03-01T13:29:00;94467.88;;;10.32;76.51
7768;BME280;3928;42.626;23.382;2023-03-01T13:31:58;94469.97;;;10.64;74.75
7768;BME280;3928;42.626;23.382;2023-03-01T13:34:55;94474.34;;;10.59;74.81
7768;BME280;3928;42.626;23.382;2023-03-01T13:37:33;94464.31;;;10.42;75.46